Pittsburgh, PA (15243)

7:55 AM EST on February 28, 2015 (GMT -0500)
Mt. Lebanon, PA | Change Station
CLOSE
Current Station
Personal Weather Station
Location: Pittsburgh, PA
Elevation: 1211 ft
Nearby Weather Stations

Elev 1211 ft 40.39 °N, 80.05 °W | Updated 18 seconds ago

Partly Cloudy
Partly Cloudy
6.0 °F
Feels Like 6 °F
N
0.0
Wind Variable Wind from WNW
Gusts 0.0 mph

Today
High -- | Low -- °F
--% Chance of Precip.
Yesterday
High -- | Low -- °F
Precip. -- in
6:55 AM 6:10 PM
Waxing Gibbous, 77% visible
Pressure 30.69 in
Visibility 3.0 miles
Clouds Clear
Windchill 6 °F
Dew Point 4 °F
Humidity 84%
Rainfall 0.00 in
Snow Depth Not available.
UV 0 out of 12
Pollen .50 out of 12
Air Quality Not available.
Flu Activity Not available.
SPECI KAGC 281216Z AUTO 05003KT 3SM HZ CLR M15/M18 A3069 RMK AO2 T11501183 TSNO

More Conditions Fewer Conditions

Pressure 30.69 in
Visibility 3.0 miles
Clouds Clear
Windchill 6 °F
Dew Point 4 °F
Humidity 84%
Rainfall 0.00 in
Snow Depth Not available.
UV 0 out of 12
Pollen .50 out of 12
Air Quality Not available.
Flu Activity Not available.
SPECI KAGC 281216Z AUTO 05003KT 3SM HZ CLR M15/M18 A3069 RMK AO2 T11501183 TSNO

More Conditions Fewer Conditions

10-Day Weather Forecast

Almanac

Astronomy

Feb. 28, 2015 Rise Set
Actual Time
Civil Twilight
Nautical Twilight
Astronomical Twilight
Moon
Length of Visible Light
Length of Day
Tomorrow will be .
, % of the Moon is Illuminated

Today's Extremes

State Highs State Lows

Community

WunderPhotos

Upload Photos

1,801,000 photos uploaded!

WunderBlogs® & News

Nearby

Air Quality

  Air Quality AQ Index Pollutant
Not available.

Snow Depth

Station Depth Elevation

Earthquake Activity

City Distance Mag. Time & Date
Minimum magnitude displayed is 2.5.

Coastal Water Temperatures

Place Temperature

Nearby Weather Stations